sensor_id;sensor_type;location;lat;lon;timestamp;temperature;humidity
56428;DHT22;42331;53.578;9.760;2023-05-29T00:02:21;11.60;99.90
56428;DHT22;42331;53.578;9.760;2023-05-29T00:04:52;11.60;99.90
56428;DHT22;42331;53.578;9.760;2023-05-29T00:07:23;11.60;99.90
56428;DHT22;42331;53.578;9.760;2023-05-29T00:09:53;11.60;99.90
56428;DHT22;42331;53.578;9.760;2023-05-29T00:12:24;11.50;99.90
56428;DHT22;42331;53.578;9.760;2023-05-29T00:14:55;11.50;99.90
56428;DHT22;42331;53.578;9.760;2023-05-29T00:17:26;11.50;99.90
56428;DHT22;42331;53.578;9.760;2023-05-29T00:19:57;11.50;99.90
56428;DHT22;42331;53.578;9.760;2023-05-29T00:22:29;11.50;99.90
56428;DHT22;42331;53.578;9.760;2023-05-29T00:25:00;11.40;99.90
56428;DHT22;42331;53.578;9.760;2023-05-29T00:27:31;11.40;99.90
56428;DHT22;42331;53.578;9.760;2023-05-29T00:30:03;11.30;99.90
56428;DHT22;42331;53.578;9.760;2023-05-29T00:32:34;11.20;99.90
56428;DHT22;42331;53.578;9.760;2023-05-29T00:35:06;11.20;99.90
56428;DHT22;42331;53.578;9.760;2023-05-29T00:37:36;11.10;99.90
56428;DHT22;42331;53.578;9.760;2023-05-29T00:40:07;11.00;99.90
56428;DHT22;42331;53.578;9.760;2023-05-29T00:42:38;10.90;99.90
56428;DHT22;42331;53.578;9.760;2023-05-29T00:45:09;10.80;99.90
56428;DHT22;42331;53.578;9.760;2023-05-29T00:47:41;10.70;99.90
56428;DHT22;42331;53.578;9.760;2023-05-29T00:50:14;10.60;99.90
56428;DHT22;42331;53.578;9.760;2023-05-29T00:52:45;10.60;99.90
56428;DHT22;42331;53.578;9.760;2023-05-29T00:55:16;10.60;99.90
56428;DHT22;42331;53.578;9.760;2023-05-29T00:57:47;10.60;99.90
56428;DHT22;42331;53.578;9.760;2023-05-29T01:00:18;10.60;99.90
56428;DHT22;42331;53.578;9.760;2023-05-29T01:02:49;10.50;99.90
56428;DHT22;42331;53.578;9.760;2023-05-29T01:05:20;10.50;99.90
56428;DHT22;42331;53.578;9.760;2023-05-29T01:07:50;10.40;99.90
56428;DHT22;42331;53.578;9.760;2023-05-29T01:10:21;10.40;99.90
56428;DHT22;42331;53.578;9.760;2023-05-29T01:15:50;10.20;99.90
56428;DHT22;42331;53.578;9.760;2023-05-29T01:21:55;10.00;99.90
56428;DHT22;42331;53.578;9.760;2023-05-29T01:24:58;10.10;99.90
56428;DHT22;42331;53.578;9.760;2023-05-29T01:27:33;10.00;99.90
56428;DHT22;42331;53.578;9.760;2023-05-29T01:30:05;9.90;99.90
56428;DHT22;42331;53.578;9.760;2023-05-29T01:32:36;9.80;99.90
56428;DHT22;42331;53.578;9.760;2023-05-29T01:35:08;9.80;99.90
56428;DHT22;42331;53.578;9.760;2023-05-29T01:37:39;9.70;99.90
56428;DHT22;42331;53.578;9.760;2023-05-29T01:40:11;9.70;99.90
56428;DHT22;42331;53.578;9.760;2023-05-29T01:42:42;9.70;99.90
56428;DHT22;42331;53.578;9.760;2023-05-29T01:45:13;9.70;99.90
56428;DHT22;42331;53.578;9.760;2023-05-29T01:47:44;9.60;99.90
56428;DHT22;42331;53.578;9.760;2023-05-29T01:50:17;9.50;99.90
56428;DHT22;42331;53.578;9.760;2023-05-29T01:52:48;9.50;99.90
56428;DHT22;42331;53.578;9.760;2023-05-29T01:55:19;9.50;99.90
56428;DHT22;42331;53.578;9.760;2023-05-29T01:57:51;9.40;99.90
56428;DHT22;42331;53.578;9.760;2023-05-29T02:00:22;9.30;99.90
56428;DHT22;42331;53.578;9.760;2023-05-29T02:02:54;9.30;99.90
56428;DHT22;42331;53.578;9.760;2023-05-29T02:05:25;9.30;99.90
56428;DHT22;42331;53.578;9.760;2023-05-29T02:07:55;9.20;99.90
56428;DHT22;42331;53.578;9.760;2023-05-29T02:10:26;9.20;99.90
56428;DHT22;42331;53.578;9.760;2023-05-29T02:12:57;9.20;99.90
56428;DHT22;42331;53.578;9.760;2023-05-29T02:15:28;9.20;99.90
56428;DHT22;42331;53.578;9.760;2023-05-29T02:17:59;9.20;99.90
56428;DHT22;42331;53.578;9.760;2023-05-29T02:20:31;9.20;99.90
56428;DHT22;42331;53.578;9.760;2023-05-29T02:23:02;9.10;99.90
56428;DHT22;42331;53.578;9.760;2023-05-29T02:25:33;9.10;99.90
56428;DHT22;42331;53.578;9.760;2023-05-29T02:28:03;9.00;99.90
56428;DHT22;42331;53.578;9.760;2023-05-29T02:30:34;9.00;99.90
56428;DHT22;42331;53.578;9.760;2023-05-29T02:33:05;9.00;99.90
56428;DHT22;42331;53.578;9.760;2023-05-29T02:35:36;8.90;99.90
56428;DHT22;42331;53.578;9.760;2023-05-29T02:38:07;8.90;99.90
56428;DHT22;42331;53.578;9.760;2023-05-29T02:40:38;9.00;99.90
56428;DHT22;42331;53.578;9.760;2023-05-29T02:43:12;9.00;99.90
56428;DHT22;42331;53.578;9.760;2023-05-29T02:45:42;9.00;99.90
56428;DHT22;42331;53.578;9.760;2023-05-29T02:48:13;9.00;99.90
56428;DHT22;42331;53.578;9.760;2023-05-29T02:50:44;8.90;99.90
56428;DHT22;42331;53.578;9.760;2023-05-29T02:53:14;8.90;99.90
56428;DHT22;42331;53.578;9.760;2023-05-29T02:55:45;8.80;99.90
56428;DHT22;42331;53.578;9.760;2023-05-29T02:58:17;8.90;99.90
56428;DHT22;42331;53.578;9.760;2023-05-29T03:00:48;8.90;99.90
56428;DHT22;42331;53.578;9.760;2023-05-29T03:03:19;8.90;99.90
56428;DHT22;42331;53.578;9.760;2023-05-29T03:05:50;8.90;99.90
56428;DHT22;42331;53.578;9.760;2023-05-29T03:08:20;8.80;99.90
56428;DHT22;42331;53.578;9.760;2023-05-29T03:10:51;8.80;99.90
56428;DHT22;42331;53.578;9.760;2023-05-29T03:13:22;8.60;99.90
56428;DHT22;42331;53.578;9.760;2023-05-29T03:15:53;8.70;99.90
56428;DHT22;42331;53.578;9.760;2023-05-29T03:18:27;8.60;99.90
56428;DHT22;42331;53.578;9.760;2023-05-29T03:20:58;8.60;99.90
56428;DHT22;42331;53.578;9.760;2023-05-29T03:23:28;8.70;99.90
56428;DHT22;42331;53.578;9.760;2023-05-29T03:25:59;8.70;99.90
56428;DHT22;42331;53.578;9.760;2023-05-29T03:28:31;8.70;99.90
56428;DHT22;42331;53.578;9.760;2023-05-29T03:31:01;8.70;99.90
56428;DHT22;42331;53.578;9.760;2023-05-29T03:33:32;8.70;99.90
56428;DHT22;42331;53.578;9.760;2023-05-29T03:36:03;8.70;99.90
56428;DHT22;42331;53.578;9.760;2023-05-29T03:38:34;8.70;99.90
56428;DHT22;42331;53.578;9.760;2023-05-29T03:41:05;8.70;99.90
56428;DHT22;42331;53.578;9.760;2023-05-29T03:43:35;8.60;99.90
56428;DHT22;42331;53.578;9.760;2023-05-29T03:46:06;8.70;99.90
56428;DHT22;42331;53.578;9.760;2023-05-29T03:48:37;8.70;99.90
56428;DHT22;42331;53.578;9.760;2023-05-29T03:51:08;8.70;99.90
56428;DHT22;42331;53.578;9.760;2023-05-29T03:53:38;8.70;99.90
56428;DHT22;42331;53.578;9.760;2023-05-29T03:56:09;8.70;99.90
56428;DHT22;42331;53.578;9.760;2023-05-29T03:58:40;8.80;99.90
56428;DHT22;42331;53.578;9.760;2023-05-29T04:01:11;8.80;99.90
56428;DHT22;42331;53.578;9.760;2023-05-29T04:03:42;8.80;99.90
56428;DHT22;42331;53.578;9.760;2023-05-29T04:06:14;8.90;99.90
56428;DHT22;42331;53.578;9.760;2023-05-29T04:08:45;9.00;99.90
56428;DHT22;42331;53.578;9.760;2023-05-29T04:11:15;9.00;99.90
56428;DHT22;42331;53.578;9.760;2023-05-29T04:13:47;9.00;99.90
56428;DHT22;42331;53.578;9.760;2023-05-29T04:16:18;9.00;99.90
56428;DHT22;42331;53.578;9.760;2023-05-29T04:18:49;8.90;99.90
56428;DHT22;42331;53.578;9.760;2023-05-29T04:21:19;9.00;99.90
56428;DHT22;42331;53.578;9.760;2023-05-29T04:23:51;9.10;99.90
56428;DHT22;42331;53.578;9.760;2023-05-29T04:26:22;9.20;99.90
56428;DHT22;42331;53.578;9.760;2023-05-29T04:28:56;9.20;99.90
56428;DHT22;42331;53.578;9.760;2023-05-29T04:31:30;9.30;99.90
56428;DHT22;42331;53.578;9.760;2023-05-29T04:34:00;9.40;99.90
56428;DHT22;42331;53.578;9.760;2023-05-29T04:36:35;9.30;99.90
56428;DHT22;42331;53.578;9.760;2023-05-29T04:39:09;9.40;99.90
56428;DHT22;42331;53.578;9.760;2023-05-29T04:41:40;9.40;99.90
56428;DHT22;42331;53.578;9.760;2023-05-29T04:44:11;9.40;99.90
56428;DHT22;42331;53.578;9.760;2023-05-29T04:46:42;9.40;99.90
56428;DHT22;42331;53.578;9.760;2023-05-29T04:49:14;9.50;99.90
56428;DHT22;42331;53.578;9.760;2023-05-29T04:51:45;9.50;99.90
56428;DHT22;42331;53.578;9.760;2023-05-29T04:54:16;9.50;99.90
56428;DHT22;42331;53.578;9.760;2023-05-29T04:56:47;9.50;99.90
56428;DHT22;42331;53.578;9.760;2023-05-29T04:59:18;9.60;99.90
56428;DHT22;42331;53.578;9.760;2023-05-29T05:01:49;9.60;99.90
56428;DHT22;42331;53.578;9.760;2023-05-29T05:04:20;9.60;99.90
56428;DHT22;42331;53.578;9.760;2023-05-29T05:06:51;9.60;99.90
56428;DHT22;42331;53.578;9.760;2023-05-29T05:09:21;9.60;99.90
56428;DHT22;42331;53.578;9.760;2023-05-29T05:11:52;9.70;99.90
56428;DHT22;42331;53.578;9.760;2023-05-29T05:14:23;9.80;99.90
56428;DHT22;42331;53.578;9.760;2023-05-29T05:16:54;9.90;99.90
56428;DHT22;42331;53.578;9.760;2023-05-29T05:19:25;10.00;99.90
56428;DHT22;42331;53.578;9.760;2023-05-29T05:21:55;10.10;99.90
56428;DHT22;42331;53.578;9.760;2023-05-29T05:24:26;10.30;99.90
56428;DHT22;42331;53.578;9.760;2023-05-29T05:26:57;10.30;99.90
56428;DHT22;42331;53.578;9.760;2023-05-29T05:29:28;10.30;99.90
56428;DHT22;42331;53.578;9.760;2023-05-29T05:31:59;10.20;99.90
56428;DHT22;42331;53.578;9.760;2023-05-29T05:34:30;10.30;99.90
56428;DHT22;42331;53.578;9.760;2023-05-29T05:37:00;10.40;99.90
56428;DHT22;42331;53.578;9.760;2023-05-29T05:39:32;10.40;99.90
56428;DHT22;42331;53.578;9.760;2023-05-29T05:42:03;10.50;99.90
56428;DHT22;42331;53.578;9.760;2023-05-29T05:44:35;10.60;99.90
56428;DHT22;42331;53.578;9.760;2023-05-29T05:47:06;10.50;99.90
56428;DHT22;42331;53.578;9.760;2023-05-29T05:49:36;10.60;99.90
56428;DHT22;42331;53.578;9.760;2023-05-29T05:52:07;10.60;99.90
56428;DHT22;42331;53.578;9.760;2023-05-29T05:54:38;10.80;99.90
56428;DHT22;42331;53.578;9.760;2023-05-29T05:57:09;10.80;99.90
56428;DHT22;42331;53.578;9.760;2023-05-29T05:59:40;10.90;99.90
56428;DHT22;42331;53.578;9.760;2023-05-29T06:02:10;10.90;99.90
56428;DHT22;42331;53.578;9.760;2023-05-29T06:04:41;10.90;99.90
56428;DHT22;42331;53.578;9.760;2023-05-29T06:07:12;10.90;99.90
56428;DHT22;42331;53.578;9.760;2023-05-29T06:09:43;11.00;99.90
56428;DHT22;42331;53.578;9.760;2023-05-29T06:12:14;11.20;99.90
56428;DHT22;42331;53.578;9.760;2023-05-29T06:14:46;11.30;99.90
56428;DHT22;42331;53.578;9.760;2023-05-29T06:17:16;11.40;99.90
56428;DHT22;42331;53.578;9.760;2023-05-29T06:19:47;11.40;99.90
56428;DHT22;42331;53.578;9.760;2023-05-29T06:22:19;11.50;99.90
56428;DHT22;42331;53.578;9.760;2023-05-29T06:24:49;11.50;99.90
56428;DHT22;42331;53.578;9.760;2023-05-29T06:27:20;11.50;99.90
56428;DHT22;42331;53.578;9.760;2023-05-29T06:29:53;11.50;99.90
56428;DHT22;42331;53.578;9.760;2023-05-29T06:32:24;11.60;99.90
56428;DHT22;42331;53.578;9.760;2023-05-29T06:34:55;11.50;99.90
56428;DHT22;42331;53.578;9.760;2023-05-29T06:37:25;11.50;99.90
56428;DHT22;42331;53.578;9.760;2023-05-29T06:39:56;11.70;99.90
56428;DHT22;42331;53.578;9.760;2023-05-29T06:42:27;11.90;99.90
56428;DHT22;42331;53.578;9.760;2023-05-29T06:44:57;12.10;99.90
56428;DHT22;42331;53.578;9.760;2023-05-29T06:47:29;12.20;99.90
56428;DHT22;42331;53.578;9.760;2023-05-29T06:50:00;12.20;99.90
56428;DHT22;42331;53.578;9.760;2023-05-29T06:52:31;12.20;99.90
56428;DHT22;42331;53.578;9.760;2023-05-29T06:55:02;12.20;99.90
56428;DHT22;42331;53.578;9.760;2023-05-29T06:57:33;12.20;99.90
56428;DHT22;42331;53.578;9.760;2023-05-29T07:00:07;12.30;99.90
56428;DHT22;42331;53.578;9.760;2023-05-29T07:02:40;12.40;99.90
56428;DHT22;42331;53.578;9.760;2023-05-29T07:05:10;12.50;99.90
56428;DHT22;42331;53.578;9.760;2023-05-29T07:07:41;12.40;99.90
56428;DHT22;42331;53.578;9.760;2023-05-29T07:10:12;12.40;99.90
56428;DHT22;42331;53.578;9.760;2023-05-29T07:12:43;12.40;99.90
56428;DHT22;42331;53.578;9.760;2023-05-29T07:15:14;12.50;99.90
56428;DHT22;42331;53.578;9.760;2023-05-29T07:17:44;12.40;99.90
56428;DHT22;42331;53.578;9.760;2023-05-29T07:20:15;12.50;99.90
56428;DHT22;42331;53.578;9.760;2023-05-29T07:22:46;12.50;99.90
56428;DHT22;42331;53.578;9.760;2023-05-29T07:25:17;12.50;99.90
56428;DHT22;42331;53.578;9.760;2023-05-29T07:27:47;12.50;99.90
56428;DHT22;42331;53.578;9.760;2023-05-29T07:30:18;12.60;99.90
56428;DHT22;42331;53.578;9.760;2023-05-29T07:32:49;12.70;99.90
56428;DHT22;42331;53.578;9.760;2023-05-29T07:35:19;12.80;99.90
56428;DHT22;42331;53.578;9.760;2023-05-29T07:37:50;12.80;99.90
56428;DHT22;42331;53.578;9.760;2023-05-29T07:40:22;12.90;99.90
56428;DHT22;42331;53.578;9.760;2023-05-29T07:42:53;12.90;99.90
56428;DHT22;42331;53.578;9.760;2023-05-29T07:45:24;13.00;99.90
56428;DHT22;42331;53.578;9.760;2023-05-29T07:47:54;13.20;99.90
56428;DHT22;42331;53.578;9.760;2023-05-29T07:50:25;13.40;99.90
56428;DHT22;42331;53.578;9.760;2023-05-29T07:52:56;13.40;99.90
56428;DHT22;42331;53.578;9.760;2023-05-29T07:55:27;13.50;99.90
56428;DHT22;42331;53.578;9.760;2023-05-29T07:57:58;13.30;99.90
56428;DHT22;42331;53.578;9.760;2023-05-29T08:00:30;13.30;99.90
56428;DHT22;42331;53.578;9.760;2023-05-29T08:03:01;13.30;99.90
56428;DHT22;42331;53.578;9.760;2023-05-29T08:05:33;13.30;99.90
56428;DHT22;42331;53.578;9.760;2023-05-29T08:08:04;13.10;99.90
56428;DHT22;42331;53.578;9.760;2023-05-29T08:10:35;13.20;99.90
56428;DHT22;42331;53.578;9.760;2023-05-29T08:13:05;13.40;99.90
56428;DHT22;42331;53.578;9.760;2023-05-29T08:15:36;13.70;99.90
56428;DHT22;42331;53.578;9.760;2023-05-29T08:18:07;13.80;99.90
56428;DHT22;42331;53.578;9.760;2023-05-29T08:20:38;13.80;99.90
56428;DHT22;42331;53.578;9.760;2023-05-29T08:23:08;14.00;99.90
56428;DHT22;42331;53.578;9.760;2023-05-29T08:25:39;13.80;99.90
56428;DHT22;42331;53.578;9.760;2023-05-29T08:28:10;13.80;99.90
56428;DHT22;42331;53.578;9.760;2023-05-29T08:30:41;14.00;99.90
56428;DHT22;42331;53.578;9.760;2023-05-29T08:33:11;14.10;99.90
56428;DHT22;42331;53.578;9.760;2023-05-29T08:35:42;14.30;99.90
56428;DHT22;42331;53.578;9.760;2023-05-29T08:38:13;14.30;99.90
56428;DHT22;42331;53.578;9.760;2023-05-29T08:40:44;14.40;99.90
56428;DHT22;42331;53.578;9.760;2023-05-29T08:43:20;14.30;99.90
56428;DHT22;42331;53.578;9.760;2023-05-29T08:45:54;14.20;99.90
56428;DHT22;42331;53.578;9.760;2023-05-29T08:48:25;14.20;99.90
56428;DHT22;42331;53.578;9.760;2023-05-29T08:50:58;14.40;99.90
56428;DHT22;42331;53.578;9.760;2023-05-29T08:53:29;14.30;99.90
56428;DHT22;42331;53.578;9.760;2023-05-29T08:56:02;14.40;99.90
56428;DHT22;42331;53.578;9.760;2023-05-29T08:58:34;14.70;99.90
56428;DHT22;42331;53.578;9.760;2023-05-29T09:01:05;14.80;99.90
56428;DHT22;42331;53.578;9.760;2023-05-29T09:03:36;14.70;99.90
56428;DHT22;42331;53.578;9.760;2023-05-29T09:06:08;14.80;99.90
56428;DHT22;42331;53.578;9.760;2023-05-29T09:08:39;14.70;99.90
56428;DHT22;42331;53.578;9.760;2023-05-29T09:11:10;14.70;99.90
56428;DHT22;42331;53.578;9.760;2023-05-29T09:13:41;14.90;99.90
56428;DHT22;42331;53.578;9.760;2023-05-29T09:16:12;15.10;99.90
56428;DHT22;42331;53.578;9.760;2023-05-29T09:18:42;15.20;99.90
56428;DHT22;42331;53.578;9.760;2023-05-29T09:21:27;15.00;99.90
56428;DHT22;42331;53.578;9.760;2023-05-29T09:24:03;15.10;99.90
56428;DHT22;42331;53.578;9.760;2023-05-29T09:26:34;15.30;99.90
56428;DHT22;42331;53.578;9.760;2023-05-29T09:29:06;15.30;99.90
56428;DHT22;42331;53.578;9.760;2023-05-29T09:31:42;15.40;99.90
56428;DHT22;42331;53.578;9.760;2023-05-29T09:34:16;15.60;99.90
56428;DHT22;42331;53.578;9.760;2023-05-29T09:36:46;15.70;99.90
56428;DHT22;42331;53.578;9.760;2023-05-29T09:39:17;15.60;99.90
56428;DHT22;42331;53.578;9.760;2023-05-29T09:41:49;15.70;99.90
56428;DHT22;42331;53.578;9.760;2023-05-29T09:44:20;15.90;99.90
56428;DHT22;42331;53.578;9.760;2023-05-29T09:46:56;16.00;99.90
56428;DHT22;42331;53.578;9.760;2023-05-29T09:49:28;16.20;99.90
56428;DHT22;42331;53.578;9.760;2023-05-29T09:52:01;16.40;99.90
56428;DHT22;42331;53.578;9.760;2023-05-29T09:54:34;16.60;99.90
56428;DHT22;42331;53.578;9.760;2023-05-29T09:57:07;17.00;99.90
56428;DHT22;42331;53.578;9.760;2023-05-29T09:59:42;16.70;99.90
56428;DHT22;42331;53.578;9.760;2023-05-29T10:02:15;16.80;99.90
56428;DHT22;42331;53.578;9.760;2023-05-29T10:04:48;17.10;99.90
56428;DHT22;42331;53.578;9.760;2023-05-29T10:07:29;17.80;99.90
56428;DHT22;42331;53.578;9.760;2023-05-29T10:10:04;18.10;99.90
56428;DHT22;42331;53.578;9.760;2023-05-29T10:12:38;18.20;99.90
56428;DHT22;42331;53.578;9.760;2023-05-29T10:15:13;18.30;99.90
56428;DHT22;42331;53.578;9.760;2023-05-29T10:17:56;18.50;99.90
56428;DHT22;42331;53.578;9.760;2023-05-29T10:20:28;18.20;99.90
56428;DHT22;42331;53.578;9.760;2023-05-29T10:23:01;17.80;99.90
56428;DHT22;42331;53.578;9.760;2023-05-29T10:25:35;18.00;99.90
56428;DHT22;42331;53.578;9.760;2023-05-29T10:28:06;18.40;99.90
56428;DHT22;42331;53.578;9.760;2023-05-29T10:30:52;18.90;99.90
56428;DHT22;42331;53.578;9.760;2023-05-29T10:36:35;20.30;99.90
56428;DHT22;42331;53.578;9.760;2023-05-29T10:39:08;21.30;99.90
56428;DHT22;42331;53.578;9.760;2023-05-29T10:41:39;21.60;99.90
56428;DHT22;42331;53.578;9.760;2023-05-29T10:44:37;21.50;99.90
56428;DHT22;42331;53.578;9.760;2023-05-29T10:47:08;21.40;99.90
56428;DHT22;42331;53.578;9.760;2023-05-29T10:49:49;21.80;99.90
56428;DHT22;42331;53.578;9.760;2023-05-29T10:52:22;20.90;99.90
56428;DHT22;42331;53.578;9.760;2023-05-29T10:54:54;21.60;99.90
56428;DHT22;42331;53.578;9.760;2023-05-29T10:57:25;21.40;99.90
56428;DHT22;42331;53.578;9.760;2023-05-29T11:00:03;21.40;99.90
56428;DHT22;42331;53.578;9.760;2023-05-29T11:02:38;21.90;99.90
56428;DHT22;42331;53.578;9.760;2023-05-29T11:05:19;22.70;99.90
56428;DHT22;42331;53.578;9.760;2023-05-29T11:07:56;22.70;99.90
56428;DHT22;42331;53.578;9.760;2023-05-29T11:10:44;21.80;99.90
56428;DHT22;42331;53.578;9.760;2023-05-29T11:19:06;21.70;99.90
56428;DHT22;42331;53.578;9.760;2023-05-29T11:24:25;20.10;99.90
56428;DHT22;42331;53.578;9.760;2023-05-29T11:26:57;19.10;99.90
56428;DHT22;42331;53.578;9.760;2023-05-29T11:29:30;18.90;99.90
56428;DHT22;42331;53.578;9.760;2023-05-29T11:32:05;18.60;99.90
56428;DHT22;42331;53.578;9.760;2023-05-29T11:34:40;18.60;99.90
56428;DHT22;42331;53.578;9.760;2023-05-29T11:37:11;18.30;99.90
56428;DHT22;42331;53.578;9.760;2023-05-29T11:39:42;18.20;99.90
56428;DHT22;42331;53.578;9.760;2023-05-29T11:42:13;18.00;99.90
56428;DHT22;42331;53.578;9.760;2023-05-29T11:44:43;18.00;99.90
56428;DHT22;42331;53.578;9.760;2023-05-29T11:47:14;17.90;99.90
56428;DHT22;42331;53.578;9.760;2023-05-29T11:49:45;17.70;99.90
56428;DHT22;42331;53.578;9.760;2023-05-29T11:52:16;17.80;99.90
56428;DHT22;42331;53.578;9.760;2023-05-29T11:55:06;18.00;99.90
56428;DHT22;42331;53.578;9.760;2023-05-29T11:57:37;17.70;99.90
56428;DHT22;42331;53.578;9.760;2023-05-29T12:00:11;17.60;99.90
56428;DHT22;42331;53.578;9.760;2023-05-29T12:02:49;17.60;99.90
56428;DHT22;42331;53.578;9.760;2023-05-29T12:05:21;17.60;99.90
56428;DHT22;42331;53.578;9.760;2023-05-29T12:07:53;17.50;99.90
56428;DHT22;42331;53.578;9.760;2023-05-29T12:10:24;17.70;99.90
56428;DHT22;42331;53.578;9.760;2023-05-29T12:12:57;17.80;99.90
56428;DHT22;42331;53.578;9.760;2023-05-29T12:15:28;17.90;99.90
56428;DHT22;42331;53.578;9.760;2023-05-29T12:17:59;17.90;99.90
56428;DHT22;42331;53.578;9.760;2023-05-29T12:20:31;17.90;99.90
56428;DHT22;42331;53.578;9.760;2023-05-29T12:23:02;18.00;99.90
56428;DHT22;42331;53.578;9.760;2023-05-29T12:25:34;17.90;99.90
56428;DHT22;42331;53.578;9.760;2023-05-29T12:28:08;18.20;99.90
56428;DHT22;42331;53.578;9.760;2023-05-29T12:30:39;18.30;99.90
56428;DHT22;42331;53.578;9.760;2023-05-29T12:33:33;18.40;99.90
56428;DHT22;42331;53.578;9.760;2023-05-29T12:36:05;18.40;99.90
56428;DHT22;42331;53.578;9.760;2023-05-29T12:38:50;18.30;99.90
56428;DHT22;42331;53.578;9.760;2023-05-29T12:41:34;18.40;99.90
56428;DHT22;42331;53.578;9.760;2023-05-29T12:44:06;18.40;99.90
56428;DHT22;42331;53.578;9.760;2023-05-29T12:46:40;18.40;99.90
56428;DHT22;42331;53.578;9.760;2023-05-29T12:49:14;18.50;99.90
56428;DHT22;42331;53.578;9.760;2023-05-29T12:51:46;18.30;99.90
56428;DHT22;42331;53.578;9.760;2023-05-29T12:54:17;18.20;99.90
56428;DHT22;42331;53.578;9.760;2023-05-29T12:56:47;18.10;99.90
56428;DHT22;42331;53.578;9.760;2023-05-29T12:59:21;18.10;99.90
56428;DHT22;42331;53.578;9.760;2023-05-29T13:01:51;18.10;99.90
56428;DHT22;42331;53.578;9.760;2023-05-29T13:04:22;18.10;99.90
56428;DHT22;42331;53.578;9.760;2023-05-29T13:06:53;18.20;99.90
56428;DHT22;42331;53.578;9.760;2023-05-29T13:09:24;18.30;99.90
56428;DHT22;42331;53.578;9.760;2023-05-29T13:11:55;18.20;99.90
56428;DHT22;42331;53.578;9.760;2023-05-29T13:14:25;18.10;99.90
56428;DHT22;42331;53.578;9.760;2023-05-29T13:16:56;18.00;99.90
56428;DHT22;42331;53.578;9.760;2023-05-29T13:19:27;18.10;99.90
56428;DHT22;42331;53.578;9.760;2023-05-29T13:21:58;18.10;99.90
56428;DHT22;42331;53.578;9.760;2023-05-29T13:24:28;18.20;99.90
56428;DHT22;42331;53.578;9.760;2023-05-29T13:26:59;18.10;99.90
56428;DHT22;42331;53.578;9.760;2023-05-29T13:29:31;18.10;99.90
56428;DHT22;42331;53.578;9.760;2023-05-29T13:32:02;18.30;99.90
56428;DHT22;42331;53.578;9.760;2023-05-29T13:34:33;18.30;99.90
56428;DHT22;42331;53.578;9.760;2023-05-29T13:37:04;18.20;99.90
56428;DHT22;42331;53.578;9.760;2023-05-29T13:39:34;18.00;99.90
56428;DHT22;42331;53.578;9.760;2023-05-29T13:42:06;18.10;99.90
56428;DHT22;42331;53.578;9.760;2023-05-29T13:44:38;18.40;99.90
56428;DHT22;42331;53.578;9.760;2023-05-29T13:47:09;18.40;99.90
56428;DHT22;42331;53.578;9.760;2023-05-29T13:49:40;18.40;99.90
56428;DHT22;42331;53.578;9.760;2023-05-29T13:52:11;18.50;99.90
56428;DHT22;42331;53.578;9.760;2023-05-29T13:54:42;18.30;99.90
56428;DHT22;42331;53.578;9.760;2023-05-29T13:57:13;18.30;99.90
56428;DHT22;42331;53.578;9.760;2023-05-29T13:59:43;18.50;99.90
56428;DHT22;42331;53.578;9.760;2023-05-29T14:02:14;18.30;99.90
56428;DHT22;42331;53.578;9.760;2023-05-29T14:04:46;18.40;99.90
56428;DHT22;42331;53.578;9.760;2023-05-29T14:07:16;18.50;99.90
56428;DHT22;42331;53.578;9.760;2023-05-29T14:09:47;18.30;99.90
56428;DHT22;42331;53.578;9.760;2023-05-29T14:12:18;18.30;99.90
56428;DHT22;42331;53.578;9.760;2023-05-29T14:14:49;18.10;99.90
56428;DHT22;42331;53.578;9.760;2023-05-29T14:17:20;18.10;99.90
56428;DHT22;42331;53.578;9.760;2023-05-29T14:19:50;18.40;99.90
56428;DHT22;42331;53.578;9.760;2023-05-29T14:22:21;18.50;99.90
56428;DHT22;42331;53.578;9.760;2023-05-29T14:24:52;18.10;99.90
56428;DHT22;42331;53.578;9.760;2023-05-29T14:27:23;18.10;99.90
56428;DHT22;42331;53.578;9.760;2023-05-29T14:29:53;18.10;99.90
56428;DHT22;42331;53.578;9.760;2023-05-29T14:32:24;18.10;99.90
56428;DHT22;42331;53.578;9.760;2023-05-29T14:34:55;17.80;99.90
56428;DHT22;42331;53.578;9.760;2023-05-29T14:37:28;18.00;99.90
56428;DHT22;42331;53.578;9.760;2023-05-29T14:39:58;18.10;99.90
56428;DHT22;42331;53.578;9.760;2023-05-29T14:42:29;18.30;99.90
56428;DHT22;42331;53.578;9.760;2023-05-29T14:45:00;18.10;99.90
56428;DHT22;42331;53.578;9.760;2023-05-29T14:47:31;18.00;99.90
56428;DHT22;42331;53.578;9.760;2023-05-29T14:50:02;18.00;99.90
56428;DHT22;42331;53.578;9.760;2023-05-29T14:52:33;17.90;99.90
56428;DHT22;42331;53.578;9.760;2023-05-29T14:55:04;18.00;99.90
56428;DHT22;42331;53.578;9.760;2023-05-29T14:57:36;18.10;99.90
56428;DHT22;42331;53.578;9.760;2023-05-29T15:00:07;18.00;99.90
56428;DHT22;42331;53.578;9.760;2023-05-29T15:02:38;18.00;99.90
56428;DHT22;42331;53.578;9.760;2023-05-29T15:05:10;18.10;99.90
56428;DHT22;42331;53.578;9.760;2023-05-29T15:07:40;18.10;99.90
56428;DHT22;42331;53.578;9.760;2023-05-29T15:10:11;18.00;99.90
56428;DHT22;42331;53.578;9.760;2023-05-29T15:12:42;17.80;99.90
56428;DHT22;42331;53.578;9.760;2023-05-29T15:15:13;17.80;99.90
56428;DHT22;42331;53.578;9.760;2023-05-29T15:17:43;17.90;99.90
56428;DHT22;42331;53.578;9.760;2023-05-29T15:20:17;17.80;99.90
56428;DHT22;42331;53.578;9.760;2023-05-29T15:22:51;17.70;99.90
56428;DHT22;42331;53.578;9.760;2023-05-29T15:25:23;17.70;99.90
56428;DHT22;42331;53.578;9.760;2023-05-29T15:27:53;17.70;99.90
56428;DHT22;42331;53.578;9.760;2023-05-29T15:30:24;17.60;99.90
56428;DHT22;42331;53.578;9.760;2023-05-29T15:32:55;17.60;99.90
56428;DHT22;42331;53.578;9.760;2023-05-29T15:35:26;17.70;99.90
56428;DHT22;42331;53.578;9.760;2023-05-29T15:37:57;17.90;99.90
56428;DHT22;42331;53.578;9.760;2023-05-29T15:40:28;17.90;99.90
56428;DHT22;42331;53.578;9.760;2023-05-29T15:42:59;18.00;99.90
56428;DHT22;42331;53.578;9.760;2023-05-29T15:45:30;17.90;99.90
56428;DHT22;42331;53.578;9.760;2023-05-29T15:48:01;18.00;99.90
56428;DHT22;42331;53.578;9.760;2023-05-29T15:50:32;18.00;99.90
56428;DHT22;42331;53.578;9.760;2023-05-29T15:53:03;17.80;99.90
56428;DHT22;42331;53.578;9.760;2023-05-29T15:55:34;17.80;99.90
56428;DHT22;42331;53.578;9.760;2023-05-29T15:58:05;17.70;99.90
56428;DHT22;42331;53.578;9.760;2023-05-29T16:00:36;17.70;99.90
56428;DHT22;42331;53.578;9.760;2023-05-29T16:03:07;17.60;99.90
56428;DHT22;42331;53.578;9.760;2023-05-29T16:05:38;17.70;99.90
56428;DHT22;42331;53.578;9.760;2023-05-29T16:08:09;17.60;99.90
56428;DHT22;42331;53.578;9.760;2023-05-29T16:10:40;17.60;99.90
56428;DHT22;42331;53.578;9.760;2023-05-29T16:13:11;17.60;99.90
56428;DHT22;42331;53.578;9.760;2023-05-29T16:15:42;17.60;99.90
56428;DHT22;42331;53.578;9.760;2023-05-29T16:18:16;17.60;99.90
56428;DHT22;42331;53.578;9.760;2023-05-29T16:20:47;17.40;99.90
56428;DHT22;42331;53.578;9.760;2023-05-29T16:23:17;17.30;99.90